sensor_id;sensor_type;location;lat;lon;timestamp;P1;durP1;ratioP1;P2;durP2;ratioP2
7941;SDS011;4016;50.758;7.150;2023-09-08T00:03:31;6.00;;;5.37;;
7941;SDS011;4016;50.758;7.150;2023-09-08T00:08:31;5.90;;;5.30;;
7941;SDS011;4016;50.758;7.150;2023-09-08T00:13:32;6.93;;;5.78;;
7941;SDS011;4016;50.758;7.150;2023-09-08T00:18:32;6.47;;;5.65;;
7941;SDS011;4016;50.758;7.150;2023-09-08T00:23:32;6.60;;;5.90;;
7941;SDS011;4016;50.758;7.150;2023-09-08T00:28:33;6.13;;;5.53;;
7941;SDS011;4016;50.758;7.150;2023-09-08T00:33:33;6.87;;;5.47;;
7941;SDS011;4016;50.758;7.150;2023-09-08T00:38:34;6.20;;;5.60;;
7941;SDS011;4016;50.758;7.150;2023-09-08T00:43:34;6.53;;;5.63;;
7941;SDS011;4016;50.758;7.150;2023-09-08T00:48:34;7.60;;;5.27;;
7941;SDS011;4016;50.758;7.150;2023-09-08T00:53:36;6.43;;;5.00;;
7941;SDS011;4016;50.758;7.150;2023-09-08T00:58:37;6.00;;;5.40;;
7941;SDS011;4016;50.758;7.150;2023-09-08T01:03:37;6.77;;;6.07;;
7941;SDS011;4016;50.758;7.150;2023-09-08T01:08:38;6.30;;;5.70;;
7941;SDS011;4016;50.758;7.150;2023-09-08T01:13:38;6.00;;;5.40;;
7941;SDS011;4016;50.758;7.150;2023-09-08T01:18:38;5.83;;;5.23;;
7941;SDS011;4016;50.758;7.150;2023-09-08T01:28:59;6.20;;;5.60;;
7941;SDS011;4016;50.758;7.150;2023-09-08T01:34:01;6.63;;;5.93;;
7941;SDS011;4016;50.758;7.150;2023-09-08T01:39:06;6.57;;;5.97;;
7941;SDS011;4016;50.758;7.150;2023-09-08T01:44:06;6.13;;;5.33;;
7941;SDS011;4016;50.758;7.150;2023-09-08T01:49:10;6.63;;;5.93;;
7941;SDS011;4016;50.758;7.150;2023-09-08T01:54:10;6.77;;;5.87;;
7941;SDS011;4016;50.758;7.150;2023-09-08T01:59:11;8.23;;;6.30;;
7941;SDS011;4016;50.758;7.150;2023-09-08T02:04:11;6.57;;;5.90;;
7941;SDS011;4016;50.758;7.150;2023-09-08T02:09:13;6.23;;;5.63;;
7941;SDS011;4016;50.758;7.150;2023-09-08T02:14:14;6.17;;;5.50;;
7941;SDS011;4016;50.758;7.150;2023-09-08T02:19:14;6.00;;;5.40;;
7941;SDS011;4016;50.758;7.150;2023-09-08T02:24:15;5.80;;;5.27;;
7941;SDS011;4016;50.758;7.150;2023-09-08T02:29:15;7.30;;;5.83;;
7941;SDS011;4016;50.758;7.150;2023-09-08T02:34:15;6.57;;;5.63;;
7941;SDS011;4016;50.758;7.150;2023-09-08T02:39:16;5.73;;;5.17;;
7941;SDS011;4016;50.758;7.150;2023-09-08T02:44:16;6.20;;;5.60;;
7941;SDS011;4016;50.758;7.150;2023-09-08T02:49:17;6.37;;;5.77;;
7941;SDS011;4016;50.758;7.150;2023-09-08T02:54:18;6.37;;;5.77;;
7941;SDS011;4016;50.758;7.150;2023-09-08T02:59:18;7.63;;;5.70;;
7941;SDS011;4016;50.758;7.150;2023-09-08T03:04:19;7.10;;;6.03;;
7941;SDS011;4016;50.758;7.150;2023-09-08T03:09:19;7.13;;;5.90;;
7941;SDS011;4016;50.758;7.150;2023-09-08T03:14:19;8.80;;;5.73;;
7941;SDS011;4016;50.758;7.150;2023-09-08T03:19:20;6.70;;;6.00;;
7941;SDS011;4016;50.758;7.150;2023-09-08T03:24:20;6.80;;;6.07;;
7941;SDS011;4016;50.758;7.150;2023-09-08T03:29:21;6.93;;;5.97;;
7941;SDS011;4016;50.758;7.150;2023-09-08T03:34:21;6.20;;;5.60;;
7941;SDS011;4016;50.758;7.150;2023-09-08T03:39:22;6.37;;;5.77;;
7941;SDS011;4016;50.758;7.150;2023-09-08T03:44:22;7.10;;;5.73;;
7941;SDS011;4016;50.758;7.150;2023-09-08T03:49:22;6.67;;;5.77;;
7941;SDS011;4016;50.758;7.150;2023-09-08T03:54:23;5.87;;;5.27;;
7941;SDS011;4016;50.758;7.150;2023-09-08T03:59:23;7.33;;;6.63;;
7941;SDS011;4016;50.758;7.150;2023-09-08T04:04:24;6.90;;;6.20;;
7941;SDS011;4016;50.758;7.150;2023-09-08T04:09:24;7.57;;;6.30;;
7941;SDS011;4016;50.758;7.150;2023-09-08T04:14:24;6.67;;;5.73;;
7941;SDS011;4016;50.758;7.150;2023-09-08T04:19:27;6.33;;;5.73;;
7941;SDS011;4016;50.758;7.150;2023-09-08T04:24:27;6.37;;;5.77;;
7941;SDS011;4016;50.758;7.150;2023-09-08T04:29:28;7.10;;;6.40;;
7941;SDS011;4016;50.758;7.150;2023-09-08T04:34:28;6.17;;;5.53;;
7941;SDS011;4016;50.758;7.150;2023-09-08T04:39:28;6.77;;;6.13;;
7941;SDS011;4016;50.758;7.150;2023-09-08T04:44:29;7.10;;;6.30;;
7941;SDS011;4016;50.758;7.150;2023-09-08T04:49:29;6.80;;;6.07;;
7941;SDS011;4016;50.758;7.150;2023-09-08T04:54:29;6.13;;;5.53;;
7941;SDS011;4016;50.758;7.150;2023-09-08T04:59:31;6.77;;;6.17;;
7941;SDS011;4016;50.758;7.150;2023-09-08T05:04:32;7.10;;;6.20;;
7941;SDS011;4016;50.758;7.150;2023-09-08T05:09:33;6.60;;;5.70;;
7941;SDS011;4016;50.758;7.150;2023-09-08T05:14:33;8.67;;;6.27;;
7941;SDS011;4016;50.758;7.150;2023-09-08T05:19:34;6.50;;;5.77;;
7941;SDS011;4016;50.758;7.150;2023-09-08T05:24:34;10.67;;;6.13;;
7941;SDS011;4016;50.758;7.150;2023-09-08T05:29:34;6.60;;;5.43;;
7941;SDS011;4016;50.758;7.150;2023-09-08T05:34:35;7.17;;;6.47;;
7941;SDS011;4016;50.758;7.150;2023-09-08T05:39:35;7.93;;;6.47;;
7941;SDS011;4016;50.758;7.150;2023-09-08T05:44:35;7.67;;;6.40;;
7941;SDS011;4016;50.758;7.150;2023-09-08T05:49:36;8.03;;;6.20;;
7941;SDS011;4016;50.758;7.150;2023-09-08T05:54:36;7.57;;;6.77;;
7941;SDS011;4016;50.758;7.150;2023-09-08T05:59:37;8.47;;;6.63;;
7941;SDS011;4016;50.758;7.150;2023-09-08T06:04:37;7.93;;;6.20;;
7941;SDS011;4016;50.758;7.150;2023-09-08T06:09:37;7.10;;;6.50;;
7941;SDS011;4016;50.758;7.150;2023-09-08T06:14:39;9.30;;;7.03;;
7941;SDS011;4016;50.758;7.150;2023-09-08T06:19:39;9.40;;;7.20;;
7941;SDS011;4016;50.758;7.150;2023-09-08T06:24:39;7.90;;;7.20;;
7941;SDS011;4016;50.758;7.150;2023-09-08T06:29:40;8.03;;;6.97;;
7941;SDS011;4016;50.758;7.150;2023-09-08T06:34:43;8.10;;;7.27;;
7941;SDS011;4016;50.758;7.150;2023-09-08T06:39:43;7.47;;;6.67;;
7941;SDS011;4016;50.758;7.150;2023-09-08T06:44:44;6.77;;;6.07;;
7941;SDS011;4016;50.758;7.150;2023-09-08T06:49:44;7.47;;;6.77;;
7941;SDS011;4016;50.758;7.150;2023-09-08T06:54:45;7.20;;;6.50;;
7941;SDS011;4016;50.758;7.150;2023-09-08T06:59:45;8.20;;;7.03;;
7941;SDS011;4016;50.758;7.150;2023-09-08T07:04:46;7.70;;;6.90;;
7941;SDS011;4016;50.758;7.150;2023-09-08T07:09:46;7.27;;;6.40;;
7941;SDS011;4016;50.758;7.150;2023-09-08T07:14:47;7.00;;;6.30;;
7941;SDS011;4016;50.758;7.150;2023-09-08T07:19:47;6.03;;;5.53;;
7941;SDS011;4016;50.758;7.150;2023-09-08T07:24:47;6.55;;;5.95;;
7941;SDS011;4016;50.758;7.150;2023-09-08T07:29:48;6.60;;;6.00;;
7941;SDS011;4016;50.758;7.150;2023-09-08T07:34:49;6.55;;;5.93;;
7941;SDS011;4016;50.758;7.150;2023-09-08T07:39:54;6.30;;;5.70;;
7941;SDS011;4016;50.758;7.150;2023-09-08T07:44:55;6.80;;;5.30;;
7941;SDS011;4016;50.758;7.150;2023-09-08T07:50:15;6.60;;;5.03;;
7941;SDS011;4016;50.758;7.150;2023-09-08T07:55:20;5.35;;;4.85;;
7941;SDS011;4016;50.758;7.150;2023-09-08T08:00:22;5.47;;;4.97;;
7941;SDS011;4016;50.758;7.150;2023-09-08T08:05:24;5.57;;;5.07;;
7941;SDS011;4016;50.758;7.150;2023-09-08T08:10:25;5.78;;;5.22;;
7941;SDS011;4016;50.758;7.150;2023-09-08T08:15:34;6.13;;;5.53;;
7941;SDS011;4016;50.758;7.150;2023-09-08T08:20:39;5.45;;;4.95;;
7941;SDS011;4016;50.758;7.150;2023-09-08T08:25:40;6.40;;;5.82;;
7941;SDS011;4016;50.758;7.150;2023-09-08T08:30:40;5.28;;;4.60;;
7941;SDS011;4016;50.758;7.150;2023-09-08T08:35:41;6.07;;;5.30;;
7941;SDS011;4016;50.758;7.150;2023-09-08T08:40:41;6.03;;;5.10;;
7941;SDS011;4016;50.758;7.150;2023-09-08T08:45:42;5.47;;;4.97;;
7941;SDS011;4016;50.758;7.150;2023-09-08T08:50:43;5.32;;;4.82;;
7941;SDS011;4016;50.758;7.150;2023-09-08T08:55:44;5.00;;;4.57;;
7941;SDS011;4016;50.758;7.150;2023-09-08T09:00:45;6.65;;;5.20;;
7941;SDS011;4016;50.758;7.150;2023-09-08T09:05:46;5.28;;;4.78;;
7941;SDS011;4016;50.758;7.150;2023-09-08T09:10:46;6.53;;;5.00;;
7941;SDS011;4016;50.758;7.150;2023-09-08T09:15:48;5.22;;;4.72;;
7941;SDS011;4016;50.758;7.150;2023-09-08T09:20:53;5.68;;;5.15;;
7941;SDS011;4016;50.758;7.150;2023-09-08T09:25:55;6.18;;;5.28;;
7941;SDS011;4016;50.758;7.150;2023-09-08T09:30:55;5.40;;;4.90;;
7941;SDS011;4016;50.758;7.150;2023-09-08T09:35:56;6.18;;;4.60;;
7941;SDS011;4016;50.758;7.150;2023-09-08T09:40:57;5.15;;;4.72;;
7941;SDS011;4016;50.758;7.150;2023-09-08T09:45:58;6.57;;;5.15;;
7941;SDS011;4016;50.758;7.150;2023-09-08T09:50:58;5.95;;;5.35;;
7941;SDS011;4016;50.758;7.150;2023-09-08T09:55:59;5.50;;;5.00;;
7941;SDS011;4016;50.758;7.150;2023-09-08T10:01:00;5.78;;;5.00;;
7941;SDS011;4016;50.758;7.150;2023-09-08T10:06:02;5.88;;;5.28;;
7941;SDS011;4016;50.758;7.150;2023-09-08T10:11:05;5.38;;;4.88;;
7941;SDS011;4016;50.758;7.150;2023-09-08T10:16:07;5.07;;;4.57;;
7941;SDS011;4016;50.758;7.150;2023-09-08T10:21:08;5.65;;;5.15;;
7941;SDS011;4016;50.758;7.150;2023-09-08T10:26:10;4.97;;;4.57;;
7941;SDS011;4016;50.758;7.150;2023-09-08T10:31:11;7.18;;;5.40;;
7941;SDS011;4016;50.758;7.150;2023-09-08T10:36:13;5.63;;;5.13;;
7941;SDS011;4016;50.758;7.150;2023-09-08T10:46:23;5.40;;;4.90;;
7941;SDS011;4016;50.758;7.150;2023-09-08T10:51:26;5.57;;;5.00;;
7941;SDS011;4016;50.758;7.150;2023-09-08T10:56:47;5.95;;;5.20;;
7941;SDS011;4016;50.758;7.150;2023-09-08T11:01:54;5.43;;;4.93;;
7941;SDS011;4016;50.758;7.150;2023-09-08T11:06:55;6.57;;;5.18;;
7941;SDS011;4016;50.758;7.150;2023-09-08T11:11:56;6.20;;;5.60;;
7941;SDS011;4016;50.758;7.150;2023-09-08T11:17:03;5.80;;;5.30;;
7941;SDS011;4016;50.758;7.150;2023-09-08T11:22:03;5.10;;;4.65;;
7941;SDS011;4016;50.758;7.150;2023-09-08T11:27:04;5.40;;;4.90;;
7941;SDS011;4016;50.758;7.150;2023-09-08T11:32:05;6.75;;;5.25;;
7941;SDS011;4016;50.758;7.150;2023-09-08T11:37:12;5.55;;;4.90;;
7941;SDS011;4016;50.758;7.150;2023-09-08T11:42:16;5.40;;;4.90;;
7941;SDS011;4016;50.758;7.150;2023-09-08T11:47:17;5.45;;;4.95;;
7941;SDS011;4016;50.758;7.150;2023-09-08T11:52:18;5.45;;;4.95;;
7941;SDS011;4016;50.758;7.150;2023-09-08T11:57:23;5.78;;;5.28;;
7941;SDS011;4016;50.758;7.150;2023-09-08T12:02:23;5.43;;;4.88;;
7941;SDS011;4016;50.758;7.150;2023-09-08T12:07:25;6.10;;;5.00;;
7941;SDS011;4016;50.758;7.150;2023-09-08T12:12:25;6.93;;;5.20;;
7941;SDS011;4016;50.758;7.150;2023-09-08T12:17:26;5.45;;;5.00;;
7941;SDS011;4016;50.758;7.150;2023-09-08T12:22:28;7.20;;;5.07;;
7941;SDS011;4016;50.758;7.150;2023-09-08T12:27:35;5.80;;;5.30;;
7941;SDS011;4016;50.758;7.150;2023-09-08T12:32:45;5.10;;;4.70;;
7941;SDS011;4016;50.758;7.150;2023-09-08T12:37:53;5.70;;;5.20;;
7941;SDS011;4016;50.758;7.150;2023-09-08T12:42:56;5.63;;;5.13;;
7941;SDS011;4016;50.758;7.150;2023-09-08T12:47:59;5.35;;;4.85;;
7941;SDS011;4016;50.758;7.150;2023-09-08T12:53:02;5.90;;;5.15;;
7941;SDS011;4016;50.758;7.150;2023-09-08T12:58:02;5.53;;;5.03;;
7941;SDS011;4016;50.758;7.150;2023-09-08T13:03:03;5.47;;;4.97;;
7941;SDS011;4016;50.758;7.150;2023-09-08T13:08:04;5.38;;;4.80;;
7941;SDS011;4016;50.758;7.150;2023-09-08T13:13:04;6.30;;;5.38;;
7941;SDS011;4016;50.758;7.150;2023-09-08T13:18:05;5.60;;;5.20;;
7941;SDS011;4016;50.758;7.150;2023-09-08T13:23:05;7.60;;;5.30;;
7941;SDS011;4016;50.758;7.150;2023-09-08T13:28:05;5.83;;;5.33;;
7941;SDS011;4016;50.758;7.150;2023-09-08T13:33:06;5.20;;;4.80;;
7941;SDS011;4016;50.758;7.150;2023-09-08T13:38:07;5.63;;;5.13;;
7941;SDS011;4016;50.758;7.150;2023-09-08T13:43:07;6.00;;;5.43;;
7941;SDS011;4016;50.758;7.150;2023-09-08T13:48:08;5.97;;;5.43;;
7941;SDS011;4016;50.758;7.150;2023-09-08T13:53:08;6.28;;;5.68;;
7941;SDS011;4016;50.758;7.150;2023-09-08T13:58:08;6.13;;;5.53;;
7941;SDS011;4016;50.758;7.150;2023-09-08T14:03:09;6.67;;;6.00;;
7941;SDS011;4016;50.758;7.150;2023-09-08T14:08:09;5.90;;;5.40;;
7941;SDS011;4016;50.758;7.150;2023-09-08T14:13:10;6.03;;;5.53;;
7941;SDS011;4016;50.758;7.150;2023-09-08T14:18:10;6.60;;;5.30;;
7941;SDS011;4016;50.758;7.150;2023-09-08T14:23:10;5.97;;;5.32;;
7941;SDS011;4016;50.758;7.150;2023-09-08T14:28:11;6.03;;;5.53;;
7941;SDS011;4016;50.758;7.150;2023-09-08T14:33:11;6.20;;;5.60;;
7941;SDS011;4016;50.758;7.150;2023-09-08T14:38:12;6.03;;;5.47;;
7941;SDS011;4016;50.758;7.150;2023-09-08T14:43:13;6.80;;;5.47;;
7941;SDS011;4016;50.758;7.150;2023-09-08T14:48:13;5.63;;;5.13;;
7941;SDS011;4016;50.758;7.150;2023-09-08T14:53:14;5.93;;;5.43;;
7941;SDS011;4016;50.758;7.150;2023-09-08T14:58:15;5.60;;;5.10;;
7941;SDS011;4016;50.758;7.150;2023-09-08T15:03:15;5.78;;;5.28;;
7941;SDS011;4016;50.758;7.150;2023-09-08T15:08:16;6.13;;;5.60;;
7941;SDS011;4016;50.758;7.150;2023-09-08T15:13:16;5.90;;;5.37;;
7941;SDS011;4016;50.758;7.150;2023-09-08T15:18:16;6.30;;;5.80;;
7941;SDS011;4016;50.758;7.150;2023-09-08T15:23:19;5.90;;;5.40;;
7941;SDS011;4016;50.758;7.150;2023-09-08T15:28:20;5.72;;;5.22;;
7941;SDS011;4016;50.758;7.150;2023-09-08T15:33:21;6.22;;;5.72;;
7941;SDS011;4016;50.758;7.150;2023-09-08T15:38:24;5.72;;;5.22;;
7941;SDS011;4016;50.758;7.150;2023-09-08T15:43:25;5.85;;;5.30;;
7941;SDS011;4016;50.758;7.150;2023-09-08T15:48:25;5.50;;;5.00;;
7941;SDS011;4016;50.758;7.150;2023-09-08T15:53:25;5.40;;;5.00;;
7941;SDS011;4016;50.758;7.150;2023-09-08T15:58:26;5.57;;;5.07;;
7941;SDS011;4016;50.758;7.150;2023-09-08T16:03:26;5.50;;;5.00;;
7941;SDS011;4016;50.758;7.150;2023-09-08T16:08:26;5.53;;;5.03;;
7941;SDS011;4016;50.758;7.150;2023-09-08T16:13:27;6.60;;;5.13;;
7941;SDS011;4016;50.758;7.150;2023-09-08T16:18:27;5.63;;;5.13;;
7941;SDS011;4016;50.758;7.150;2023-09-08T16:23:27;6.77;;;5.40;;
7941;SDS011;4016;50.758;7.150;2023-09-08T16:28:28;5.70;;;5.20;;
7941;SDS011;4016;50.758;7.150;2023-09-08T16:33:28;6.40;;;5.70;;
7941;SDS011;4016;50.758;7.150;2023-09-08T16:38:28;6.27;;;5.40;;
7941;SDS011;4016;50.758;7.150;2023-09-08T16:43:29;5.80;;;5.30;;
7941;SDS011;4016;50.758;7.150;2023-09-08T16:48:29;6.20;;;5.60;;
7941;SDS011;4016;50.758;7.150;2023-09-08T16:53:30;5.55;;;5.07;;
7941;SDS011;4016;50.758;7.150;2023-09-08T16:58:30;5.40;;;5.00;;
7941;SDS011;4016;50.758;7.150;2023-09-08T17:03:30;6.37;;;5.77;;
7941;SDS011;4016;50.758;7.150;2023-09-08T17:08:31;6.15;;;5.55;;
7941;SDS011;4016;50.758;7.150;2023-09-08T17:13:32;6.15;;;5.65;;
7941;SDS011;4016;50.758;7.150;2023-09-08T17:18:33;6.78;;;5.65;;
7941;SDS011;4016;50.758;7.150;2023-09-08T17:23:33;5.80;;;5.00;;
7941;SDS011;4016;50.758;7.150;2023-09-08T17:28:33;6.25;;;5.25;;
7941;SDS011;4016;50.758;7.150;2023-09-08T17:33:34;5.67;;;5.17;;
7941;SDS011;4016;50.758;7.150;2023-09-08T17:38:34;5.70;;;5.20;;
7941;SDS011;4016;50.758;7.150;2023-09-08T17:43:36;6.20;;;5.60;;
7941;SDS011;4016;50.758;7.150;2023-09-08T17:48:37;6.10;;;5.47;;
7941;SDS011;4016;50.758;7.150;2023-09-08T17:53:37;6.32;;;5.72;;
7941;SDS011;4016;50.758;7.150;2023-09-08T17:58:37;6.22;;;5.63;;
7941;SDS011;4016;50.758;7.150;2023-09-08T18:03:38;6.15;;;5.57;;
7941;SDS011;4016;50.758;7.150;2023-09-08T18:08:38;6.03;;;5.30;;
7941;SDS011;4016;50.758;7.150;2023-09-08T18:13:39;5.85;;;5.30;;
7941;SDS011;4016;50.758;7.150;2023-09-08T18:18:40;5.70;;;4.97;;
7941;SDS011;4016;50.758;7.150;2023-09-08T18:23:40;5.95;;;5.45;;
7941;SDS011;4016;50.758;7.150;2023-09-08T18:28:41;6.32;;;5.40;;
7941;SDS011;4016;50.758;7.150;2023-09-08T18:33:42;6.07;;;5.47;;
7941;SDS011;4016;50.758;7.150;2023-09-08T18:38:42;7.03;;;6.32;;
7941;SDS011;4016;50.758;7.150;2023-09-08T18:43:43;7.95;;;6.55;;
7941;SDS011;4016;50.758;7.150;2023-09-08T18:48:43;6.80;;;6.20;;
7941;SDS011;4016;50.758;7.150;2023-09-08T18:53:45;6.60;;;6.00;;
7941;SDS011;4016;50.758;7.150;2023-09-08T18:58:46;7.10;;;6.40;;
7941;SDS011;4016;50.758;7.150;2023-09-08T19:03:47;7.13;;;6.43;;
7941;SDS011;4016;50.758;7.150;2023-09-08T19:08:47;7.15;;;6.53;;
7941;SDS011;4016;50.758;7.150;2023-09-08T19:13:47;7.00;;;6.30;;
7941;SDS011;4016;50.758;7.150;2023-09-08T19:18:48;9.02;;;6.30;;
7941;SDS011;4016;50.758;7.150;2023-09-08T19:23:48;7.07;;;6.28;;
7941;SDS011;4016;50.758;7.150;2023-09-08T19:28:49;6.35;;;5.75;;
7941;SDS011;4016;50.758;7.150;2023-09-08T19:33:50;7.47;;;6.78;;
7941;SDS011;4016;50.758;7.150;2023-09-08T19:38:51;6.50;;;5.90;;
7941;SDS011;4016;50.758;7.150;2023-09-08T19:43:52;6.82;;;6.13;;
7941;SDS011;4016;50.758;7.150;2023-09-08T19:48:52;7.63;;;6.80;;
7941;SDS011;4016;50.758;7.150;2023-09-08T19:53:52;6.82;;;6.22;;
7941;SDS011;4016;50.758;7.150;2023-09-08T19:58:53;6.40;;;5.90;;
7941;SDS011;4016;50.758;7.150;2023-09-08T20:03:53;7.20;;;6.30;;
7941;SDS011;4016;50.758;7.150;2023-09-08T20:08:53;6.78;;;6.18;;
7941;SDS011;4016;50.758;7.150;2023-09-08T20:13:54;6.25;;;5.72;;
7941;SDS011;4016;50.758;7.150;2023-09-08T20:18:54;6.25;;;5.65;;
7941;SDS011;4016;50.758;7.150;2023-09-08T20:23:55;6.60;;;6.00;;
7941;SDS011;4016;50.758;7.150;2023-09-08T20:28:56;6.57;;;5.97;;
7941;SDS011;4016;50.758;7.150;2023-09-08T20:33:56;5.95;;;5.45;;
7941;SDS011;4016;50.758;7.150;2023-09-08T20:38:57;6.55;;;5.97;;
7941;SDS011;4016;50.758;7.150;2023-09-08T20:43:57;6.60;;;5.88;;
7941;SDS011;4016;50.758;7.150;2023-09-08T20:48:57;6.40;;;5.80;;
7941;SDS011;4016;50.758;7.150;2023-09-08T20:53:58;6.22;;;5.63;;
7941;SDS011;4016;50.758;7.150;2023-09-08T20:58:58;7.35;;;6.22;;
7941;SDS011;4016;50.758;7.150;2023-09-08T21:03:59;7.05;;;6.28;;
7941;SDS011;4016;50.758;7.150;2023-09-08T21:08:59;6.93;;;6.22;;
7941;SDS011;4016;50.758;7.150;2023-09-08T21:13:59;7.18;;;6.57;;
7941;SDS011;4016;50.758;7.150;2023-09-08T21:19:00;6.75;;;6.15;;
7941;SDS011;4016;50.758;7.150;2023-09-08T21:24:01;7.28;;;6.57;;
7941;SDS011;4016;50.758;7.150;2023-09-08T21:29:01;9.18;;;6.72;;
7941;SDS011;4016;50.758;7.150;2023-09-08T21:34:01;7.20;;;6.50;;
7941;SDS011;4016;50.758;7.150;2023-09-08T21:39:02;7.35;;;6.75;;
7941;SDS011;4016;50.758;7.150;2023-09-08T21:44:02;6.65;;;6.05;;
7941;SDS011;4016;50.758;7.150;2023-09-08T21:49:03;7.55;;;6.45;;
7941;SDS011;4016;50.758;7.150;2023-09-08T21:54:03;7.47;;;6.75;;
7941;SDS011;4016;50.758;7.150;2023-09-08T21:59:04;8.00;;;7.13;;
7941;SDS011;4016;50.758;7.150;2023-09-08T22:04:04;6.93;;;6.22;;
7941;SDS011;4016;50.758;7.150;2023-09-08T22:09:05;7.35;;;6.68;;
7941;SDS011;4016;50.758;7.150;2023-09-08T22:14:05;6.93;;;6.22;;
7941;SDS011;4016;50.758;7.150;2023-09-08T22:19:06;7.55;;;6.82;;
7941;SDS011;4016;50.758;7.150;2023-09-08T22:24:07;6.68;;;6.07;;
7941;SDS011;4016;50.758;7.150;2023-09-08T22:29:08;7.68;;;6.93;;
7941;SDS011;4016;50.758;7.150;2023-09-08T22:34:09;6.60;;;6.00;;
7941;SDS011;4016;50.758;7.150;2023-09-08T22:39:09;7.03;;;6.32;;
7941;SDS011;4016;50.758;7.150;2023-09-08T22:44:11;7.45;;;6.85;;
7941;SDS011;4016;50.758;7.150;2023-09-08T22:49:11;7.60;;;6.90;;
7941;SDS011;4016;50.758;7.150;2023-09-08T22:54:13;7.43;;;6.45;;
7941;SDS011;4016;50.758;7.150;2023-09-08T22:59:14;6.55;;;5.95;;
7941;SDS011;4016;50.758;7.150;2023-09-08T23:04:14;7.22;;;6.53;;
7941;SDS011;4016;50.758;7.150;2023-09-08T23:09:14;7.63;;;6.63;;
7941;SDS011;4016;50.758;7.150;2023-09-08T23:14:15;7.63;;;6.18;;
7941;SDS011;4016;50.758;7.150;2023-09-08T23:19:15;7.10;;;6.38;;
7941;SDS011;4016;50.758;7.150;2023-09-08T23:24:15;7.07;;;6.47;;
7941;SDS011;4016;50.758;7.150;2023-09-08T23:29:16;7.00;;;6.40;;
7941;SDS011;4016;50.758;7.150;2023-09-08T23:34:16;7.70;;;7.00;;
7941;SDS011;4016;50.758;7.150;2023-09-08T23:39:17;7.30;;;6.60;;
7941;SDS011;4016;50.758;7.150;2023-09-08T23:44:18;6.70;;;6.05;;
7941;SDS011;4016;50.758;7.150;2023-09-08T23:49:19;7.75;;;5.97;;
7941;SDS011;4016;50.758;7.150;2023-09-08T23:54:19;7.00;;;6.30;;
7941;SDS011;4016;50.758;7.150;2023-09-08T23:59:20;7.75;;;6.70;;
